createdAt,value
2023-05-15T00:00:18.477Z,6.75
2023-05-15T00:02:45.803Z,6.47
2023-05-15T00:05:14.075Z,5.90
2023-05-15T00:07:41.690Z,6.13
2023-05-15T00:10:09.339Z,6.22
2023-05-15T00:12:36.831Z,7.07
2023-05-15T00:15:04.917Z,6.65
2023-05-15T00:17:32.229Z,8.02
2023-05-15T00:20:00.433Z,7.45
2023-05-15T00:22:27.629Z,7.40
2023-05-15T00:24:54.832Z,6.63
2023-05-15T00:27:22.050Z,7.00
2023-05-15T00:29:49.191Z,6.85
2023-05-15T00:32:16.513Z,6.72
2023-05-15T00:34:45.125Z,6.07
2023-05-15T00:37:12.423Z,6.93
2023-05-15T00:39:40.188Z,7.10
2023-05-15T00:42:08.459Z,7.28
2023-05-15T00:44:37.013Z,7.23
2023-05-15T00:47:06.755Z,6.00
2023-05-15T00:49:37.319Z,6.85
2023-05-15T00:52:08.318Z,6.35
2023-05-15T00:54:35.660Z,7.13
2023-05-15T00:57:07.095Z,4.95
2023-05-15T00:59:34.974Z,6.07
2023-05-15T01:02:02.230Z,6.65
2023-05-15T01:04:29.520Z,6.85
2023-05-15T01:06:57.115Z,6.72
2023-05-15T01:09:28.168Z,6.13
2023-05-15T01:12:00.865Z,6.05
2023-05-15T01:14:28.127Z,5.97
2023-05-15T01:16:55.682Z,6.88
2023-05-15T01:19:22.966Z,6.75
2023-05-15T01:23:06.152Z,6.70
2023-05-15T01:25:56.765Z,6.90
2023-05-15T01:28:43.543Z,7.55
2023-05-15T01:31:19.241Z,6.18
2023-05-15T01:33:56.424Z,6.57
2023-05-15T01:36:57.608Z,6.82
2023-05-15T01:39:29.417Z,7.20
2023-05-15T01:42:16.996Z,6.72
2023-05-15T01:44:55.792Z,8.15
2023-05-15T01:47:37.920Z,7.32
2023-05-15T01:51:20.938Z,6.53
2023-05-15T01:55:03.967Z,6.72
2023-05-15T01:58:46.537Z,6.60
2023-05-15T02:01:14.937Z,6.78
2023-05-15T02:03:46.409Z,6.70
2023-05-15T02:07:29.408Z,7.18
2023-05-15T02:11:11.978Z,7.00
2023-05-15T02:14:54.600Z,7.28
2023-05-15T02:18:38.190Z,6.93
2023-05-15T02:21:05.702Z,6.95
2023-05-15T02:23:33.384Z,6.50
2023-05-15T02:27:16.383Z,6.55
2023-05-15T02:30:18.136Z,5.82
2023-05-15T02:34:00.579Z,6.80
2023-05-15T02:36:36.364Z,6.30
2023-05-15T02:40:03.214Z,6.88
2023-05-15T02:42:31.965Z,7.25
2023-05-15T02:45:02.629Z,7.45
2023-05-15T02:47:31.106Z,5.93
2023-05-15T02:49:59.378Z,6.70
2023-05-15T02:52:26.735Z,6.93
2023-05-15T02:54:54.133Z,7.22
2023-05-15T02:57:21.373Z,7.20
2023-05-15T02:59:48.808Z,6.82
2023-05-15T03:02:15.983Z,6.72
2023-05-15T03:04:49.512Z,7.00
2023-05-15T03:07:16.886Z,6.90
2023-05-15T03:09:44.090Z,7.03
2023-05-15T03:12:11.410Z,6.85
2023-05-15T03:14:38.581Z,7.25
2023-05-15T03:17:05.908Z,7.00
2023-05-15T03:19:36.558Z,7.75
2023-05-15T03:22:04.378Z,7.38
2023-05-15T03:24:31.698Z,7.80
2023-05-15T03:26:58.864Z,7.47
2023-05-15T03:35:01.126Z,7.43
2023-05-15T03:37:29.075Z,7.10
2023-05-15T03:39:57.008Z,7.05
2023-05-15T03:42:25.765Z,7.85
2023-05-15T03:44:53.408Z,6.80
2023-05-15T03:47:20.582Z,6.40
2023-05-15T03:49:47.727Z,7.13
2023-05-15T03:52:14.960Z,7.13
2023-05-15T03:54:43.102Z,7.20
2023-05-15T03:57:10.458Z,7.07
2023-05-15T03:59:38.183Z,6.95
2023-05-15T04:02:06.540Z,7.15
2023-05-15T04:04:33.831Z,7.30
2023-05-15T04:07:02.298Z,7.22
2023-05-15T04:09:30.094Z,6.85
2023-05-15T04:11:57.742Z,6.28
2023-05-15T04:14:29.830Z,6.82
2023-05-15T04:16:57.300Z,6.75
2023-05-15T04:19:24.644Z,7.45
2023-05-15T04:21:52.830Z,6.63
2023-05-15T04:24:21.044Z,7.43
2023-05-15T04:26:48.566Z,7.85
2023-05-15T04:29:18.202Z,7.10
2023-05-15T04:31:45.939Z,7.03
2023-05-15T04:34:13.133Z,7.10
2023-05-15T04:36:42.683Z,7.20
2023-05-15T04:39:10.397Z,6.80
2023-05-15T04:41:37.873Z,7.82
2023-05-15T04:44:06.066Z,7.40
2023-05-15T04:46:37.894Z,7.03
2023-05-15T04:49:06.958Z,7.18
2023-05-15T04:51:34.370Z,7.70
2023-05-15T04:54:01.666Z,7.07
2023-05-15T04:56:29.064Z,7.35
2023-05-15T04:58:56.589Z,6.95
2023-05-15T05:01:23.824Z,6.55
2023-05-15T05:03:51.194Z,6.38
2023-05-15T05:06:18.703Z,6.72
2023-05-15T05:08:46.172Z,7.43
2023-05-15T05:11:13.980Z,6.53
2023-05-15T05:13:42.511Z,6.05
2023-05-15T05:16:09.831Z,6.43
2023-05-15T05:18:37.494Z,6.57
2023-05-15T05:21:04.991Z,6.55
2023-05-15T05:23:33.280Z,6.28
2023-05-15T05:26:01.869Z,6.40
2023-05-15T05:28:30.417Z,5.70
2023-05-15T05:30:57.739Z,6.45
2023-05-15T05:33:25.054Z,6.18
2023-05-15T05:35:52.770Z,6.78
2023-05-15T05:38:20.131Z,6.65
2023-05-15T05:40:47.428Z,5.72
2023-05-15T05:43:14.628Z,6.13
2023-05-15T05:45:44.717Z,5.55
2023-05-15T05:48:13.306Z,5.63
2023-05-15T05:50:40.604Z,5.53
2023-05-15T05:53:07.825Z,5.05
2023-05-15T05:55:35.061Z,5.53
2023-05-15T05:58:11.820Z,5.88
2023-05-15T06:00:45.526Z,6.45
2023-05-15T06:03:13.501Z,5.55
2023-05-15T06:05:41.225Z,5.78
2023-05-15T06:08:09.250Z,5.28
2023-05-15T06:10:37.181Z,7.15
2023-05-15T06:13:04.704Z,6.63
2023-05-15T06:15:32.063Z,6.15
2023-05-15T06:17:59.298Z,5.82
2023-05-15T06:20:27.363Z,5.20
2023-05-15T06:22:55.072Z,5.28
2023-05-15T06:25:23.334Z,5.35
2023-05-15T06:27:53.879Z,5.90
2023-05-15T06:30:21.649Z,5.70
2023-05-15T06:32:49.054Z,5.35
2023-05-15T06:35:16.614Z,5.25
2023-05-15T06:37:43.873Z,5.72
2023-05-15T06:40:11.885Z,5.95
2023-05-15T06:42:39.350Z,6.18
2023-05-15T06:45:07.742Z,6.07
2023-05-15T06:47:35.041Z,5.88
2023-05-15T06:50:02.281Z,6.15
2023-05-15T06:52:30.056Z,5.63
2023-05-15T06:54:57.374Z,5.85
2023-05-15T06:57:24.586Z,6.18
2023-05-15T06:59:52.190Z,5.15
2023-05-15T07:02:24.640Z,5.50
2023-05-15T07:04:52.140Z,6.45
2023-05-15T07:07:19.496Z,6.10
2023-05-15T07:09:48.544Z,6.45
2023-05-15T07:12:16.286Z,6.15
2023-05-15T07:14:43.612Z,6.57
2023-05-15T07:17:11.161Z,5.90
2023-05-15T07:19:38.456Z,5.47
2023-05-15T07:22:05.936Z,6.07
2023-05-15T07:24:33.797Z,5.13
2023-05-15T07:27:01.376Z,6.03
2023-05-15T07:29:28.888Z,5.53
2023-05-15T07:31:56.718Z,5.45
2023-05-15T07:34:24.013Z,5.43
2023-05-15T07:36:51.181Z,4.88
2023-05-15T07:39:19.029Z,5.78
2023-05-15T07:41:47.250Z,5.07
2023-05-15T07:44:14.936Z,4.68
2023-05-15T07:46:42.767Z,5.00
2023-05-15T07:49:09.993Z,5.10
2023-05-15T07:51:37.118Z,5.05
2023-05-15T07:54:04.716Z,5.18
2023-05-15T07:56:33.142Z,5.43
2023-05-15T07:59:00.304Z,5.50
2023-05-15T08:01:28.034Z,4.60
2023-05-15T08:03:56.794Z,5.32
2023-05-15T08:06:24.036Z,4.57
2023-05-15T08:08:51.608Z,4.90
2023-05-15T08:11:19.445Z,4.55
2023-05-15T08:13:47.032Z,4.95
2023-05-15T08:16:14.371Z,5.20
2023-05-15T08:18:41.652Z,4.05
2023-05-15T08:21:08.902Z,3.67
2023-05-15T08:23:36.648Z,3.78
2023-05-15T08:26:04.977Z,4.17
2023-05-15T08:28:33.329Z,4.60
2023-05-15T08:31:00.668Z,3.80
2023-05-15T08:33:27.911Z,5.43
2023-05-15T08:35:55.157Z,5.03
2023-05-15T08:38:22.725Z,3.47
2023-05-15T08:40:54.579Z,3.33
2023-05-15T08:43:23.839Z,3.20
2023-05-15T08:48:21.172Z,2.63
2023-05-15T08:50:51.263Z,2.90
2023-05-15T08:53:19.100Z,2.80
2023-05-15T08:55:50.181Z,3.28
2023-05-15T08:58:17.654Z,3.08
2023-05-15T09:00:45.415Z,3.65
2023-05-15T09:03:23.008Z,2.70
2023-05-15T09:05:55.060Z,3.53
2023-05-15T09:10:54.196Z,3.22
2023-05-15T09:13:21.707Z,3.22
2023-05-15T09:15:49.048Z,3.90
2023-05-15T09:18:17.114Z,4.78
2023-05-15T09:20:44.363Z,5.38
2023-05-15T09:23:27.862Z,4.85
2023-05-15T09:25:57.614Z,3.30
2023-05-15T09:28:32.165Z,3.30
2023-05-15T09:31:05.868Z,5.43
2023-05-15T09:33:42.492Z,2.95
2023-05-15T09:36:10.419Z,5.30
2023-05-15T09:38:43.386Z,3.55
2023-05-15T09:41:11.553Z,3.97
2023-05-15T09:43:41.208Z,4.10
2023-05-15T09:46:12.336Z,3.33
2023-05-15T09:48:39.705Z,3.15
2023-05-15T09:51:19.660Z,3.08
2023-05-15T09:53:54.272Z,2.70
2023-05-15T09:56:22.494Z,3.65
2023-05-15T09:58:59.428Z,3.08
2023-05-15T10:01:27.726Z,2.65
2023-05-15T10:04:07.149Z,4.03
2023-05-15T10:06:42.991Z,3.78
2023-05-15T10:09:11.913Z,3.65
2023-05-15T10:11:47.523Z,3.45
2023-05-15T10:14:17.580Z,4.55
2023-05-15T10:16:46.502Z,3.42
2023-05-15T10:19:14.337Z,3.78
2023-05-15T10:21:48.454Z,2.83
2023-05-15T10:24:20.245Z,3.03
2023-05-15T10:26:49.379Z,3.13
2023-05-15T10:29:46.169Z,2.70
2023-05-15T10:32:15.095Z,2.53
2023-05-15T10:34:43.618Z,2.60
2023-05-15T10:37:12.584Z,2.90
2023-05-15T10:39:41.090Z,2.88
2023-05-15T10:42:10.311Z,2.80
2023-05-15T10:44:38.037Z,2.72
2023-05-15T10:47:07.388Z,2.72
2023-05-15T10:49:36.074Z,2.53
2023-05-15T10:52:04.384Z,2.88
2023-05-15T10:54:32.549Z,2.60
2023-05-15T10:57:00.201Z,2.40
2023-05-15T10:59:34.920Z,2.45
2023-05-15T11:02:30.389Z,2.47
2023-05-15T11:05:01.332Z,2.70
2023-05-15T11:07:29.664Z,2.00
2023-05-15T11:09:58.563Z,2.17
2023-05-15T11:13:05.738Z,2.05
2023-05-15T11:16:30.068Z,1.90
2023-05-15T11:18:57.687Z,2.25
2023-05-15T11:21:25.716Z,2.05
2023-05-15T11:24:50.704Z,1.80
2023-05-15T11:27:26.057Z,1.80
2023-05-15T11:30:18.084Z,2.05
2023-05-15T11:33:42.718Z,1.67
2023-05-15T11:36:15.825Z,2.10
2023-05-15T11:38:44.267Z,1.90
2023-05-15T11:41:21.675Z,1.92
2023-05-15T11:44:45.898Z,1.80
2023-05-15T11:47:13.628Z,1.80
2023-05-15T11:49:41.368Z,1.60
2023-05-15T11:53:06.347Z,1.98
2023-05-15T11:55:40.326Z,2.10
2023-05-15T11:58:14.629Z,1.80
2023-05-15T12:01:38.926Z,1.80
2023-05-15T12:05:03.234Z,1.63
2023-05-15T12:07:31.609Z,2.40
2023-05-15T12:10:56.547Z,2.20
2023-05-15T12:14:21.526Z,1.55
2023-05-15T12:16:53.322Z,1.50
2023-05-15T12:19:28.454Z,1.85
2023-05-15T12:21:56.758Z,1.75
2023-05-15T12:24:27.198Z,3.38
2023-05-15T12:26:57.464Z,1.90
2023-05-15T12:29:51.451Z,2.53
2023-05-15T12:32:19.832Z,2.25
2023-05-15T12:34:47.924Z,1.85
2023-05-15T12:37:15.959Z,1.63
2023-05-15T12:39:58.782Z,1.83
2023-05-15T12:42:27.211Z,1.70
2023-05-15T12:44:56.361Z,2.05
2023-05-15T12:47:28.679Z,1.67
2023-05-15T12:49:59.884Z,1.70
2023-05-15T12:52:31.315Z,2.08
2023-05-15T12:55:01.355Z,1.75
2023-05-15T12:57:29.383Z,1.60
2023-05-15T12:59:57.190Z,1.57
2023-05-15T13:02:28.226Z,1.58
2023-05-15T13:04:56.259Z,1.73
2023-05-15T13:07:23.926Z,1.75
2023-05-15T13:10:06.933Z,1.60
2023-05-15T13:12:45.471Z,1.45
2023-05-15T13:15:30.329Z,1.75
2023-05-15T13:18:10.610Z,2.00
2023-05-15T13:20:47.495Z,1.95
2023-05-15T13:23:20.383Z,1.60
2023-05-15T13:25:48.673Z,1.63
2023-05-15T13:28:17.061Z,2.17
2023-05-15T13:30:45.775Z,2.20
2023-05-15T13:33:14.009Z,1.90
2023-05-15T13:35:43.302Z,1.73
2023-05-15T13:38:11.864Z,1.90
2023-05-15T13:43:07.839Z,2.07
2023-05-15T13:45:36.463Z,2.17
2023-05-15T13:48:04.489Z,1.48
2023-05-15T13:50:32.170Z,2.00
2023-05-15T13:52:59.864Z,1.50
2023-05-15T13:55:27.603Z,1.20
2023-05-15T13:57:55.224Z,1.60
2023-05-15T14:00:23.037Z,1.97
2023-05-15T14:02:50.843Z,1.92
2023-05-15T14:05:19.011Z,1.50
2023-05-15T14:07:46.741Z,1.92
2023-05-15T14:10:19.002Z,2.13
2023-05-15T14:12:47.524Z,1.77
2023-05-15T14:15:15.748Z,1.90
2023-05-15T14:17:43.700Z,2.60
2023-05-15T14:20:11.969Z,2.15
2023-05-15T14:22:40.626Z,1.88
2023-05-15T14:25:09.646Z,1.63
2023-05-15T14:27:37.631Z,2.17
2023-05-15T14:30:06.910Z,2.08
2023-05-15T14:32:34.770Z,2.00
2023-05-15T14:35:02.688Z,2.25
2023-05-15T14:37:30.282Z,1.97
2023-05-15T14:39:58.006Z,2.00
2023-05-15T14:42:27.242Z,2.23
2023-05-15T14:44:55.039Z,2.13
2023-05-15T14:47:22.720Z,2.42
2023-05-15T14:49:50.415Z,2.00
2023-05-15T14:52:18.168Z,2.10
2023-05-15T14:54:49.235Z,2.15
2023-05-15T14:57:24.841Z,2.42
2023-05-15T14:59:52.431Z,2.58
2023-05-15T15:02:20.046Z,2.50
2023-05-15T15:04:47.710Z,2.00
2023-05-15T15:07:15.456Z,1.92
2023-05-15T15:09:43.053Z,1.90
2023-05-15T15:12:10.705Z,2.20
2023-05-15T15:14:38.252Z,2.08
2023-05-15T15:17:05.978Z,2.30
2023-05-15T15:19:34.211Z,2.13
2023-05-15T15:22:01.882Z,1.63
2023-05-15T15:24:29.485Z,2.35
2023-05-15T15:26:57.512Z,2.08
2023-05-15T15:29:25.374Z,2.00
2023-05-15T15:31:53.367Z,1.70
2023-05-15T15:34:21.946Z,1.90
2023-05-15T15:36:49.544Z,2.22
2023-05-15T15:39:17.154Z,1.90
2023-05-15T15:41:44.872Z,2.00
2023-05-15T15:44:12.460Z,2.97
2023-05-15T15:46:40.238Z,2.55
2023-05-15T15:49:08.074Z,3.70
2023-05-15T15:51:41.392Z,5.05
2023-05-15T15:54:09.177Z,19.45
2023-05-15T15:56:36.842Z,9.55
2023-05-15T15:59:04.450Z,31.17
2023-05-15T16:01:32.704Z,7.80
2023-05-15T16:04:00.397Z,14.25
2023-05-15T16:06:28.132Z,3.03
2023-05-15T16:08:55.767Z,7.47
2023-05-15T16:11:23.877Z,5.82
2023-05-15T16:13:52.139Z,5.30
2023-05-15T16:16:19.802Z,3.58
2023-05-15T16:18:47.676Z,4.18
2023-05-15T16:21:15.563Z,4.38
2023-05-15T16:23:43.194Z,4.72
2023-05-15T16:26:11.354Z,4.50
2023-05-15T16:28:39.775Z,4.20
2023-05-15T16:31:09.507Z,7.35
2023-05-15T16:33:37.209Z,5.07
2023-05-15T16:36:05.421Z,5.55
2023-05-15T16:38:33.172Z,4.50
2023-05-15T16:41:02.099Z,4.80
2023-05-15T16:43:29.843Z,4.10
2023-05-15T16:45:57.449Z,3.80
2023-05-15T16:48:27.426Z,3.95
2023-05-15T16:50:55.170Z,3.80
2023-05-15T16:53:23.540Z,3.92
2023-05-15T16:55:51.401Z,3.85
2023-05-15T16:58:19.076Z,3.95
2023-05-15T17:00:47.054Z,3.95
2023-05-15T17:03:14.703Z,3.85
2023-05-15T17:05:42.514Z,4.47
2023-05-15T17:08:10.297Z,4.43
2023-05-15T17:10:37.968Z,3.55
2023-05-15T17:13:06.174Z,3.85
2023-05-15T17:15:33.401Z,3.70
2023-05-15T17:18:00.643Z,3.10
2023-05-15T17:20:28.616Z,2.90
2023-05-15T17:22:55.725Z,2.90
2023-05-15T17:25:23.730Z,3.40
2023-05-15T17:27:51.271Z,2.90
2023-05-15T17:30:19.253Z,3.15
2023-05-15T17:32:46.669Z,2.70
2023-05-15T17:35:13.884Z,2.83
2023-05-15T17:37:41.334Z,2.90
2023-05-15T17:40:09.813Z,2.88
2023-05-15T17:42:37.300Z,2.72
2023-05-15T17:45:05.288Z,2.63
2023-05-15T17:47:32.702Z,2.88
2023-05-15T17:49:59.915Z,2.88
2023-05-15T17:52:27.471Z,2.33
2023-05-15T17:54:54.809Z,2.40
2023-05-15T17:57:21.955Z,2.80
2023-05-15T17:59:49.154Z,3.03
2023-05-15T18:02:16.377Z,2.75
2023-05-15T18:04:44.314Z,2.90
2023-05-15T18:07:12.422Z,2.50
2023-05-15T18:09:39.979Z,2.65
2023-05-15T18:12:07.884Z,2.90
2023-05-15T18:14:36.028Z,3.40
2023-05-15T18:17:03.555Z,3.40
2023-05-15T18:19:30.692Z,3.38
2023-05-15T18:22:00.081Z,4.35
2023-05-15T18:24:27.867Z,3.90
2023-05-15T18:26:56.465Z,3.20
2023-05-15T18:29:24.591Z,3.67
2023-05-15T18:31:52.563Z,3.60
2023-05-15T18:34:20.067Z,4.28
2023-05-15T18:36:47.407Z,3.50
2023-05-15T18:39:15.796Z,3.20
2023-05-15T18:41:43.728Z,3.67
2023-05-15T18:44:10.922Z,3.15
2023-05-15T18:46:38.125Z,3.45
2023-05-15T18:49:05.456Z,3.13
2023-05-15T18:51:32.675Z,2.83
2023-05-15T18:54:08.921Z,3.15
2023-05-15T18:56:36.193Z,3.35
2023-05-15T18:59:03.464Z,3.40
2023-05-15T19:01:30.789Z,3.10
2023-05-15T19:03:58.011Z,3.67
2023-05-15T19:06:25.166Z,3.60
2023-05-15T19:08:52.404Z,3.83
2023-05-15T19:11:20.314Z,4.35
2023-05-15T19:13:47.850Z,3.85
2023-05-15T19:16:15.045Z,4.07
2023-05-15T19:18:42.276Z,4.17
2023-05-15T19:21:09.434Z,4.10
2023-05-15T19:23:37.137Z,4.07
2023-05-15T19:26:04.965Z,4.53
2023-05-15T19:28:32.318Z,4.80
2023-05-15T19:31:00.019Z,4.93
2023-05-15T19:33:27.329Z,4.15
2023-05-15T19:35:54.749Z,4.18
2023-05-15T19:38:22.758Z,3.88
2023-05-15T19:40:50.373Z,4.27
2023-05-15T19:43:18.181Z,4.90
2023-05-15T19:45:45.802Z,4.93
2023-05-15T19:48:14.076Z,4.97
2023-05-15T19:50:41.345Z,4.33
2023-05-15T19:53:08.903Z,5.50
2023-05-15T19:55:36.318Z,4.90
2023-05-15T19:58:03.803Z,5.00
2023-05-15T20:00:31.668Z,5.20
2023-05-15T20:03:01.193Z,4.57
2023-05-15T20:05:29.225Z,5.20
2023-05-15T20:07:56.812Z,5.57
2023-05-15T20:10:25.185Z,4.70
2023-05-15T20:12:52.807Z,5.57
2023-05-15T20:15:20.066Z,4.97
2023-05-15T20:17:47.334Z,5.32
2023-05-15T20:20:15.101Z,5.78
2023-05-15T20:22:44.861Z,5.75
2023-05-15T20:25:12.900Z,5.40
2023-05-15T20:27:41.029Z,4.72
2023-05-15T20:30:10.169Z,5.80
2023-05-15T20:32:37.532Z,5.47
2023-05-15T20:35:06.933Z,5.38
2023-05-15T20:40:02.244Z,5.45
2023-05-15T20:42:29.560Z,5.53
2023-05-15T20:44:56.748Z,5.03
2023-05-15T20:47:24.255Z,5.68
2023-05-15T20:49:51.397Z,5.28
2023-05-15T20:52:19.027Z,5.30
2023-05-15T20:54:46.500Z,5.65
2023-05-15T20:57:13.778Z,5.78
2023-05-15T20:59:41.673Z,5.20
2023-05-15T21:02:09.156Z,5.40
2023-05-15T21:04:36.833Z,5.88
2023-05-15T21:07:04.501Z,6.20
2023-05-15T21:09:33.772Z,6.35
2023-05-15T21:12:01.818Z,5.75
2023-05-15T21:14:29.116Z,5.70
2023-05-15T21:16:57.810Z,6.07
2023-05-15T21:19:25.866Z,5.35
2023-05-15T21:21:53.722Z,4.95
2023-05-15T21:24:22.274Z,5.57
2023-05-15T21:26:50.241Z,5.50
2023-05-15T21:29:18.799Z,6.38
2023-05-15T21:31:47.144Z,6.22
2023-05-15T21:34:14.652Z,6.80
2023-05-15T21:39:16.579Z,6.55
2023-05-15T21:41:39.990Z,5.43
2023-05-15T21:44:18.567Z,5.53
2023-05-15T21:47:25.008Z,5.43
2023-05-15T21:50:32.668Z,5.45
2023-05-15T21:53:15.049Z,5.38
2023-05-15T21:56:13.434Z,5.30
2023-05-15T21:58:51.977Z,5.28
2023-05-15T22:01:21.113Z,6.45
2023-05-15T22:03:49.271Z,5.53
2023-05-15T22:06:17.264Z,6.45
2023-05-15T22:08:44.453Z,7.22
2023-05-15T22:11:12.159Z,5.82
2023-05-15T22:13:39.556Z,6.00
2023-05-15T22:16:07.072Z,6.07
2023-05-15T22:18:34.957Z,5.82
2023-05-15T22:21:03.247Z,6.30
2023-05-15T22:23:32.240Z,5.80
2023-05-15T22:28:27.676Z,5.32
2023-05-15T22:30:55.613Z,5.35
2023-05-15T22:33:24.374Z,6.22
2023-05-15T22:35:52.735Z,5.68
2023-05-15T22:38:21.190Z,5.65
2023-05-15T22:40:52.993Z,6.22
2023-05-15T22:43:22.060Z,6.60
2023-05-15T22:45:49.462Z,5.93
2023-05-15T22:48:16.756Z,5.70
2023-05-15T22:50:44.866Z,5.93
2023-05-15T22:53:12.366Z,6.03
2023-05-15T22:55:39.653Z,5.72
2023-05-15T22:58:07.014Z,6.25
2023-05-15T23:00:34.458Z,6.03
2023-05-15T23:03:02.192Z,6.15
2023-05-15T23:05:29.803Z,5.53
2023-05-15T23:07:57.436Z,5.97
2023-05-15T23:10:25.302Z,6.00
2023-05-15T23:12:53.267Z,6.17
2023-05-15T23:15:21.294Z,6.43
2023-05-15T23:17:48.466Z,7.03
2023-05-15T23:20:15.832Z,6.15
2023-05-15T23:22:43.449Z,5.80
2023-05-15T23:25:11.874Z,6.38
2023-05-15T23:27:39.658Z,6.82
2023-05-15T23:30:09.651Z,6.60
2023-05-15T23:32:37.050Z,5.60
2023-05-15T23:35:04.663Z,6.53
2023-05-15T23:37:32.222Z,6.85
2023-05-15T23:39:59.915Z,6.20
2023-05-15T23:42:27.301Z,6.60
2023-05-15T23:44:54.370Z,6.47
2023-05-15T23:47:21.585Z,6.40
2023-05-15T23:49:48.868Z,6.50
2023-05-15T23:52:16.217Z,5.90
2023-05-15T23:54:43.634Z,6.75
2023-05-15T23:57:10.862Z,6.05
2023-05-15T23:59:38.637Z,6.20
